KBEA

Beeville Municipal Airport

Beeville, Texas, USA
METAR KBEA 162155Z AUTO 00000KT 10SM CLR 23/M12 A3025 RMK AO2 T02281125
Observed Flight Rules
Dec-16 @ 21:55 UTC (8 minutes ago) Visual Flight Rules
Visibility Clouds
10 miles
  • Clear skies
Temperatures Readings
Current 23°C / 73°F
Dewpoint -13°C / 9°F
Humidity 8%
Altimeter 30.25" Hg
Pressure 1024 hPa
Elevation 82
METAR KBEA 162155Z AUTO 00000KT 10SM CLR 23/M12 A3025 RMK AO2 T02281125
Observed Flight Rules
Dec-16 @ 21:55 UTC
(8 minutes ago)
VFR
Clouds
  • Clear skies
Temperature Dewpoint
23°C / 73°F -13°C / 9°F
Humidity Altimeter Pressure
8% 30.25" Hg 1024 hPa